Time;durP1;ratioP1;P1;durP2;ratioP2;P2;SDS_P1;SDS_P2;PMS_P1;PMS_P2;Temp;Humidity;BMP_temperature;BMP_pressure;BME280_temperature;BME280_humidity;BME280_pressure;Samples;Min_cycle;Max_cycle;Signal;HPM_P1;HPM_P2
2021/12/13 00:01:43;;;;;;;91.57;24.15;;;10.20;99.90;;;;;;5011642;28;20409;-82
2021/12/13 00:04:11;;;;;;;96.00;24.30;;;10.20;99.90;;;;;;5012471;28;20089;-82
2021/12/13 00:06:54;;;;;;;82.03;24.20;;;10.20;99.90;;;;;;5012655;28;20445;-82
2021/12/13 00:09:24;;;;;;;86.72;21.77;;;10.20;99.90;;;;;;5012288;28;20112;-82
2021/12/13 00:11:54;;;;;;;90.00;24.02;;;10.20;99.90;;;;;;5012430;28;20046;-82
2021/12/13 00:14:35;;;;;;;89.60;23.10;;;10.20;99.90;;;;;;4995060;28;20056;-82
2021/12/13 00:17:25;;;;;;;101.20;24.52;;;10.20;99.90;;;;;;5012399;28;20085;-82
2021/12/13 00:20:13;;;;;;;97.03;24.27;;;10.20;99.90;;;;;;5012430;28;20053;-82
2021/12/13 00:22:46;;;;;;;107.28;24.90;;;10.20;99.90;;;;;;5011649;28;20050;-82
2021/12/13 00:25:22;;;;;;;95.05;25.38;;;10.20;99.90;;;;;;5017549;28;20095;-82
2021/12/13 00:28:13;;;;;;;91.90;24.58;;;10.20;99.90;;;;;;5015734;28;20046;-82
2021/12/13 00:31:00;;;;;;;93.38;25.17;;;10.20;99.90;;;;;;5016222;28;20389;-82
2021/12/13 00:33:48;;;;;;;96.63;26.20;;;10.20;99.90;;;;;;5015810;28;20108;-82
2021/12/13 00:36:24;;;;;;;111.70;27.75;;;10.20;99.90;;;;;;5014917;28;20042;-82
2021/12/13 00:39:07;;;;;;;97.78;27.13;;;10.20;99.90;;;;;;5017162;28;20050;-82
2021/12/13 00:41:35;;;;;;;127.82;29.80;;;10.20;99.90;;;;;;5016143;28;20064;-82
2021/12/13 00:44:10;;;;;;;125.35;29.52;;;10.20;99.90;;;;;;5015100;28;20049;-82
2021/12/13 00:46:38;;;;;;;151.25;32.40;;;10.20;99.90;;;;;;5015414;28;20069;-82
2021/12/13 00:49:10;;;;;;;139.20;32.63;;;10.20;99.90;;;;;;5014762;28;20053;-82
2021/12/13 00:51:45;;;;;;;125.38;30.33;;;10.20;99.90;;;;;;5015754;28;20045;-82
2021/12/13 00:54:23;;;;;;;131.18;28.63;;;10.30;99.90;;;;;;5015848;28;20104;-82
2021/12/13 00:56:57;;;;;;;145.77;31.48;;;10.30;99.90;;;;;;5016102;28;20056;-82
2021/12/13 00:59:42;;;;;;;122.47;29.10;;;10.30;99.90;;;;;;5015436;28;20081;-82
2021/12/13 01:02:14;;;;;;;104.35;26.40;;;10.30;99.90;;;;;;5015495;28;20100;-81
2021/12/13 01:05:01;;;;;;;109.05;25.60;;;10.30;99.90;;;;;;5014720;28;20049;-82
2021/12/13 01:08:05;;;;;;;84.47;24.30;;;10.30;99.90;;;;;;5015496;28;20067;-81
2021/12/13 01:11:09;;;;;;;99.65;24.55;;;10.30;99.90;;;;;;4998033;28;20041;-81
2021/12/13 01:13:47;;;;;;;95.65;24.40;;;10.20;99.90;;;;;;5015600;28;20058;-81
2021/12/13 01:17:10;;;;;;;102.43;26.27;;;10.20;99.90;;;;;;5015207;28;20405;-82
2021/12/13 01:22:01;;;;;;;74.05;23.67;;;10.20;99.90;;;;;;5015129;28;20195;-81
2021/12/13 01:25:14;;;;;;;63.88;20.88;;;10.30;99.90;;;;;;4997858;28;20116;-82
2021/12/13 01:27:35;;;;;;;47.67;18.75;;;10.20;99.90;;;;;;5015155;28;20379;-82
2021/12/13 01:30:04;;;;;;;66.65;20.98;;;10.20;99.90;;;;;;5014727;28;20057;-81
2021/12/13 01:32:43;;;;;;;62.03;21.65;;;10.20;99.90;;;;;;4997917;28;20119;-81
2021/12/13 01:35:28;;;;;;;54.10;20.05;;;10.30;99.90;;;;;;5014685;28;20081;-81
2021/12/13 01:38:02;;;;;;;56.08;20.20;;;10.20;99.90;;;;;;4998458;28;20096;-81
2021/12/13 01:40:29;;;;;;;61.50;20.95;;;10.30;99.90;;;;;;5014323;28;20177;-81
2021/12/13 01:43:17;;;;;;;59.63;20.85;;;10.30;99.90;;;;;;5014843;28;20057;-81
2021/12/13 01:45:46;;;;;;;63.63;22.85;;;10.30;99.90;;;;;;5013441;28;20490;-82
2021/12/13 01:48:19;;;;;;;56.15;23.52;;;10.30;99.90;;;;;;5014651;28;20054;-81
2021/12/13 01:50:52;;;;;;;66.40;24.73;;;10.30;99.90;;;;;;4998569;28;20046;-81
2021/12/13 01:53:28;;;;;;;67.57;25.73;;;10.30;99.90;;;;;;5013743;28;20721;-81
2021/12/13 01:55:58;;;;;;;60.95;22.85;;;10.30;99.90;;;;;;5014659;28;20058;-81
2021/12/13 02:01:11;;;;;;;70.45;26.65;;;10.30;99.90;;;;;;5014627;28;20525;-81
2021/12/13 02:03:49;;;;;;;74.05;25.85;;;10.30;99.90;;;;;;5015379;28;20042;-81
2021/12/13 02:06:39;;;;;;;62.72;22.80;;;10.30;99.90;;;;;;5014199;28;20054;-81
2021/12/13 02:09:16;;;;;;;90.00;26.48;;;10.30;99.90;;;;;;5014080;28;20054;-81
2021/12/13 02:11:46;;;;;;;70.32;25.08;;;10.30;99.90;;;;;;5014205;28;20045;-81
2021/12/13 02:14:18;;;;;;;68.30;23.75;;;10.30;99.90;;;;;;5013191;28;20505;-81
2021/12/13 02:19:36;;;;;;;64.28;22.92;;;10.30;99.90;;;;;;5014023;28;20112;-82
2021/12/13 02:22:28;;;;;;;68.03;22.90;;;10.30;99.90;;;;;;4996656;28;20050;-80
2021/12/13 02:24:56;;;;;;;64.53;22.02;;;10.30;99.90;;;;;;5014088;28;20046;-81
2021/12/13 02:27:26;;;;;;;68.00;23.45;;;10.30;99.90;;;;;;4996934;28;20050;-82
2021/12/13 02:29:56;;;;;;;71.78;25.17;;;10.30;99.90;;;;;;4997574;28;20041;-82
2021/12/13 02:32:27;;;;;;;81.72;24.08;;;10.20;99.90;;;;;;5013805;28;20393;-81
2021/12/13 02:34:57;;;;;;;68.57;23.20;;;10.20;99.90;;;;;;5012939;28;20054;-81
2021/12/13 02:37:27;;;;;;;64.45;21.98;;;10.20;99.90;;;;;;4997183;28;20057;-82
2021/12/13 02:39:58;;;;;;;58.47;21.45;;;10.20;99.90;;;;;;5013589;28;20058;-81
2021/12/13 02:42:25;;;;;;;63.85;21.35;;;10.20;99.90;;;;;;5012913;28;20045;-81
2021/12/13 02:44:57;;;;;;;56.95;22.02;;;10.20;99.90;;;;;;5013618;28;20497;-82
2021/12/13 02:47:37;;;;;;;50.42;20.08;;;10.20;99.90;;;;;;5012776;28;20485;-81
2021/12/13 02:50:07;;;;;;;64.47;20.20;;;10.20;99.90;;;;;;5012806;28;20060;-82
2021/12/13 02:52:33;;;;;;;51.47;19.63;;;10.20;99.90;;;;;;5013439;28;20042;-81
2021/12/13 02:55:07;;;;;;;44.47;17.48;;;10.20;99.90;;;;;;5013213;28;20044;-81
2021/12/13 02:57:42;;;;;;;46.50;18.58;;;10.10;99.90;;;;;;4995941;28;20042;-82
2021/12/13 03:00:26;;;;;;;64.32;17.60;;;10.10;99.90;;;;;;5013170;28;20050;-81
2021/12/13 03:02:56;;;;;;;52.28;19.08;;;10.10;99.90;;;;;;5012504;28;20059;-82
2021/12/13 03:05:32;;;;;;;45.60;15.07;;;10.10;99.90;;;;;;5013242;28;20057;-81
2021/12/13 03:08:05;;;;;;;50.83;16.17;;;10.10;99.90;;;;;;5013359;28;20389;-81
2021/12/13 03:10:36;;;;;;;43.30;14.98;;;10.10;99.90;;;;;;5013866;28;20401;-81
2021/12/13 03:13:03;;;;;;;46.90;16.33;;;10.10;99.90;;;;;;4997045;28;20038;-82
2021/12/13 03:15:32;;;;;;;41.15;14.93;;;10.10;99.90;;;;;;5013244;28;20054;-81
2021/12/13 03:18:21;;;;;;;38.88;12.88;;;10.00;99.90;;;;;;4995894;28;20050;-81
2021/12/13 03:20:56;;;;;;;35.08;11.98;;;10.00;99.90;;;;;;5012842;28;20053;-81
2021/12/13 03:23:40;;;;;;;39.03;12.32;;;10.00;99.90;;;;;;5014021;28;20085;-82
2021/12/13 03:26:28;;;;;;;37.03;12.20;;;10.00;99.90;;;;;;5013175;28;20386;-82
2021/12/13 03:29:15;;;;;;;24.65;9.80;;;9.90;99.90;;;;;;5012699;28;20046;-81
2021/12/13 03:31:45;;;;;;;34.13;9.70;;;9.90;99.90;;;;;;5012674;28;20394;-82
2021/12/13 03:34:27;;;;;;;33.03;10.18;;;9.90;99.90;;;;;;5014073;28;20414;-81
2021/12/13 03:37:07;;;;;;;29.75;9.40;;;9.90;99.90;;;;;;5012799;28;20104;-81
2021/12/13 03:39:42;;;;;;;30.52;9.90;;;9.90;99.90;;;;;;5011739;28;20486;-82
2021/12/13 03:42:25;;;;;;;27.52;8.50;;;9.80;99.90;;;;;;5012795;28;20050;-82
2021/12/13 03:44:57;;;;;;;25.40;8.75;;;9.80;99.90;;;;;;4995517;28;20136;-81
2021/12/13 03:47:37;;;;;;;26.13;8.05;;;9.80;99.90;;;;;;5012245;28;20069;-82
2021/12/13 03:50:11;;;;;;;20.80;8.40;;;9.80;99.90;;;;;;5012699;28;20054;-81
2021/12/13 03:52:41;;;;;;;22.95;7.60;;;9.80;99.90;;;;;;5011888;28;20064;-81
2021/12/13 03:55:10;;;;;;;22.05;7.75;;;9.80;99.90;;;;;;5014110;28;20046;-81
2021/12/13 03:57:41;;;;;;;23.58;8.77;;;9.80;99.90;;;;;;5012836;28;20045;-81
2021/12/13 04:00:10;;;;;;;20.38;6.65;;;9.80;99.90;;;;;;5011882;28;20069;-81
2021/12/13 04:02:37;;;;;;;17.00;6.80;;;9.80;99.90;;;;;;5012343;28;20058;-81
2021/12/13 04:05:14;;;;;;;18.05;6.40;;;9.80;99.90;;;;;;5013742;28;20050;-82
2021/12/13 04:07:44;;;;;;;16.55;5.68;;;9.80;99.90;;;;;;5012937;28;20050;-81
2021/12/13 04:10:21;;;;;;;22.98;5.72;;;9.80;99.90;;;;;;5012506;28;20451;-82
2021/12/13 04:12:54;;;;;;;22.10;6.80;;;9.80;99.90;;;;;;5012459;28;20120;-81
2021/12/13 04:15:30;;;;;;;14.48;5.13;;;9.70;99.90;;;;;;5012261;28;20057;-82
2021/12/13 04:20:35;;;;;;;10.98;3.83;;;9.70;99.90;;;;;;5011500;28;20049;-81
2021/12/13 04:23:15;;;;;;;12.43;4.40;;;9.70;99.90;;;;;;5012059;28;20062;-82
2021/12/13 04:25:44;;;;;;;9.52;3.03;;;9.70;99.90;;;;;;5012390;28;20073;-82
2021/12/13 04:28:17;;;;;;;10.50;3.05;;;9.70;99.90;;;;;;5011428;28;20125;-81
2021/12/13 04:30:49;;;;;;;7.22;3.25;;;9.60;99.90;;;;;;5012359;28;20061;-81
2021/12/13 04:33:33;;;;;;;10.98;3.78;;;9.70;99.90;;;;;;5012551;28;20077;-81
2021/12/13 04:36:07;;;;;;;14.18;4.38;;;9.60;99.90;;;;;;5011327;28;20052;-81
2021/12/13 04:38:53;;;;;;;8.23;3.40;;;9.60;99.90;;;;;;5012020;28;20058;-82
2021/12/13 04:41:43;;;;;;;;;;;9.70;99.90;;;;;;5011741;28;20850;-80
2021/12/13 04:44:17;;;;;;;13.93;3.72;;;9.60;99.90;;;;;;5011992;28;19925;-81
2021/12/13 04:46:47;;;;;;;12.63;3.65;;;9.60;99.90;;;;;;5011844;28;20062;-81
2021/12/13 04:49:17;;;;;;;11.52;4.32;;;9.60;99.90;;;;;;5011353;28;20108;-81
2021/12/13 04:51:51;;;;;;;11.20;4.90;;;9.60;99.90;;;;;;5011982;28;20081;-81
2021/12/13 04:54:17;;;;;;;11.60;3.90;;;9.60;99.90;;;;;;4995455;28;20042;-81
2021/12/13 04:56:43;;;;;;;11.50;3.63;;;9.60;99.90;;;;;;5011310;28;20436;-81
2021/12/13 04:59:13;;;;;;;7.50;4.22;;;9.60;99.90;;;;;;5011731;28;20050;-81
2021/12/13 05:01:40;;;;;;;11.57;4.00;;;9.60;99.90;;;;;;5012004;28;20042;-81
2021/12/13 05:04:07;;;;;;;8.48;3.95;;;9.60;99.90;;;;;;5011095;28;20058;-81
2021/12/13 05:06:37;;;;;;;10.02;3.80;;;9.60;99.90;;;;;;5011908;28;20092;-81
2021/12/13 05:09:10;;;;;;;17.77;4.40;;;9.60;99.90;;;;;;5012577;28;20129;-81
2021/12/13 05:11:43;;;;;;;12.27;3.95;;;9.60;99.90;;;;;;5015101;28;20490;-82
2021/12/13 05:14:10;;;;;;;6.82;3.90;;;9.60;99.90;;;;;;5015464;28;20125;-81
2021/12/13 05:16:50;;;;;;;8.80;4.10;;;9.60;99.90;;;;;;5015609;28;20503;-82
2021/12/13 05:19:27;;;;;;;8.10;4.32;;;9.60;99.90;;;;;;5015103;28;20177;-81
2021/12/13 05:21:55;;;;;;;13.43;4.60;;;9.60;99.90;;;;;;5016552;28;20144;-81
2021/12/13 05:24:29;;;;;;;12.75;4.47;;;9.60;99.90;;;;;;5014121;28;20046;-81
2021/12/13 05:26:57;;;;;;;10.80;4.85;;;9.50;99.90;;;;;;5015293;28;20069;-82
2021/12/13 05:29:31;;;;;;;10.98;5.07;;;9.50;99.90;;;;;;5014837;28;20548;-82
2021/12/13 05:32:12;;;;;;;15.18;4.88;;;9.50;99.90;;;;;;4998005;28;20123;-82
2021/12/13 05:34:47;;;;;;;20.27;5.50;;;9.50;99.90;;;;;;5014869;28;20042;-82
2021/12/13 05:37:13;;;;;;;12.02;6.03;;;9.50;99.90;;;;;;5015032;28;20056;-81
2021/12/13 05:39:56;;;;;;;16.60;6.57;;;9.50;99.90;;;;;;5014459;28;20089;-82
2021/12/13 05:42:32;;;;;;;17.38;6.82;;;9.50;99.90;;;;;;5016088;28;20104;-81
2021/12/13 05:44:58;;;;;;;12.40;7.00;;;9.50;99.90;;;;;;5015303;28;20068;-82
2021/12/13 05:47:27;;;;;;;14.57;6.68;;;9.50;99.90;;;;;;5014524;28;20057;-82
2021/12/13 05:49:54;;;;;;;15.70;7.00;;;9.50;99.90;;;;;;5014518;28;20130;-82
2021/12/13 05:52:30;;;;;;;12.82;6.80;;;9.50;99.90;;;;;;5013717;28;20524;-82
2021/12/13 05:55:01;;;;;;;13.93;7.72;;;9.50;99.90;;;;;;5014606;28;20053;-82
2021/12/13 05:57:31;;;;;;;14.25;7.55;;;9.50;99.90;;;;;;5014400;28;20089;-82
2021/12/13 06:00:19;;;;;;;15.93;7.68;;;9.50;99.90;;;;;;5013636;28;20061;-82
2021/12/13 06:03:02;;;;;;;16.38;8.65;;;9.40;99.90;;;;;;5014613;28;20054;-82
2021/12/13 06:05:45;;;;;;;17.52;9.02;;;9.50;99.90;;;;;;5013429;28;20046;-82
2021/12/13 06:08:21;;;;;;;13.07;7.82;;;9.40;99.90;;;;;;4997911;28;20081;-82
2021/12/13 06:10:50;;;;;;;13.48;8.27;;;9.40;99.90;;;;;;5015504;28;20400;-82
2021/12/13 06:13:34;;;;;;;17.75;7.95;;;9.40;99.90;;;;;;5013551;28;20081;-82
2021/12/13 06:15:59;;;;;;;20.02;8.57;;;9.40;99.90;;;;;;4997987;28;20046;-81
2021/12/13 06:18:32;;;;;;;13.65;7.30;;;9.40;99.90;;;;;;5013887;28;20085;-81
2021/12/13 06:21:42;;;;;;;15.45;8.27;;;9.40;99.90;;;;;;5013905;28;20046;-82
2021/12/13 06:24:10;;;;;;;18.10;7.85;;;9.40;99.90;;;;;;5014238;28;20060;-82
2021/12/13 06:26:37;;;;;;;12.07;8.02;;;9.40;99.90;;;;;;5012962;28;20563;-82
2021/12/13 06:29:06;;;;;;;22.65;8.40;;;9.40;99.90;;;;;;5014084;28;20093;-82
2021/12/13 06:31:38;;;;;;;13.05;8.00;;;9.40;99.90;;;;;;5013638;28;20104;-82
2021/12/13 06:34:08;;;;;;;16.35;8.13;;;9.40;99.90;;;;;;5012993;28;20567;-82
2021/12/13 06:36:46;;;;;;;11.63;7.30;;;9.40;99.90;;;;;;5013749;28;20497;-82
2021/12/13 06:39:28;;;;;;;14.32;7.95;;;9.40;99.90;;;;;;5013505;28;20398;-82
2021/12/13 06:42:00;;;;;;;17.60;8.27;;;9.40;99.90;;;;;;5012662;28;20501;-82
2021/12/13 06:44:30;;;;;;;12.60;7.88;;;9.30;99.90;;;;;;5013576;28;20053;-82
2021/12/13 06:47:01;;;;;;;16.10;8.55;;;9.40;99.90;;;;;;5013217;28;20053;-82
2021/12/13 06:49:42;;;;;;;15.70;9.00;;;9.30;99.90;;;;;;5012908;28;20053;-82
2021/12/13 06:52:32;;;;;;;21.95;9.55;;;9.30;99.90;;;;;;5013466;28;20060;-82
2021/12/13 06:55:11;;;;;;;13.13;7.85;;;9.30;99.90;;;;;;5013779;28;20654;-82
2021/12/13 06:57:54;;;;;;;13.20;8.27;;;9.30;99.90;;;;;;5013129;28;20046;-82
2021/12/13 07:00:19;;;;;;;17.88;9.63;;;9.30;99.90;;;;;;5013301;28;20053;-82
2021/12/13 07:02:52;;;;;;;20.90;9.15;;;9.30;99.90;;;;;;5012385;28;20057;-82
2021/12/13 07:05:45;;;;;;;20.00;9.93;;;9.30;99.90;;;;;;4996969;28;20057;-82
2021/12/13 07:08:19;;;;;;;15.70;9.32;;;9.30;99.90;;;;;;5013253;28;20057;-82
2021/12/13 07:10:53;;;;;;;17.60;11.17;;;9.30;99.90;;;;;;5012581;28;20050;-82
2021/12/13 07:13:48;;;;;;;17.02;11.00;;;9.30;99.90;;;;;;5013192;28;20320;-82
2021/12/13 07:16:28;;;;;;;12.18;7.88;;;9.30;99.90;;;;;;5012152;28;20050;-82
2021/12/13 07:18:56;;;;;;;18.70;9.73;;;9.30;99.90;;;;;;5012911;28;20051;-82
2021/12/13 07:21:30;;;;;;;19.33;11.25;;;9.30;99.90;;;;;;4996747;28;20046;-82
2021/12/13 07:24:02;;;;;;;17.90;11.02;;;9.30;99.90;;;;;;5012157;28;20061;-82
2021/12/13 07:26:39;;;;;;;22.17;10.73;;;9.30;99.90;;;;;;5013154;28;20060;-82
2021/12/13 07:29:18;;;;;;;17.90;11.30;;;9.30;99.90;;;;;;4996724;28;20041;-82
2021/12/13 07:31:45;;;;;;;17.38;11.07;;;9.40;99.90;;;;;;5012203;28;20061;-82
2021/12/13 07:34:18;;;;;;;18.88;12.40;;;9.30;99.90;;;;;;5013112;28;20046;-82
2021/12/13 07:36:54;;;;;;;16.38;11.55;;;9.30;99.90;;;;;;5012752;28;20048;-82
2021/12/13 07:39:23;;;;;;;21.33;11.90;;;9.30;99.90;;;;;;5012493;28;20081;-82
2021/12/13 07:41:52;;;;;;;16.75;12.02;;;9.30;99.90;;;;;;5013986;28;20040;-82
2021/12/13 07:44:38;;;;;;;21.45;12.32;;;9.30;99.90;;;;;;5012012;28;20092;-82
2021/12/13 07:47:17;;;;;;;19.45;12.38;;;9.30;99.90;;;;;;5012252;28;20115;-82
2021/12/13 07:49:46;;;;;;;19.17;12.90;;;9.30;99.90;;;;;;5012792;28;20145;-82
2021/12/13 07:52:28;;;;;;;29.02;13.77;;;9.30;99.90;;;;;;5011638;28;20053;-82
2021/12/13 07:54:54;;;;;;;20.65;13.57;;;9.30;99.90;;;;;;4996042;28;20120;-82
2021/12/13 07:57:32;;;;;;;20.60;13.20;;;9.30;99.90;;;;;;5012556;28;20516;-82
2021/12/13 08:00:08;;;;;;;19.08;13.85;;;9.30;99.90;;;;;;5011477;28;20089;-82
2021/12/13 08:02:34;;;;;;;22.65;14.82;;;9.30;99.90;;;;;;5012285;28;20053;-82
2021/12/13 08:05:11;;;;;;;28.48;13.98;;;9.30;99.90;;;;;;5011600;28;20057;-82
2021/12/13 08:07:46;;;;;;;20.23;13.50;;;9.30;99.90;;;;;;5012479;28;20050;-82
2021/12/13 08:10:20;;;;;;;22.08;14.15;;;9.30;99.90;;;;;;5012234;28;20516;-82
2021/12/13 08:12:56;;;;;;;22.08;14.52;;;9.30;99.90;;;;;;5011784;28;20041;-82
2021/12/13 08:15:32;;;;;;;21.65;15.57;;;9.40;99.90;;;;;;5012332;28;20049;-82
2021/12/13 08:18:04;;;;;;;19.83;14.38;;;9.30;99.90;;;;;;4996306;28;20088;-82
2021/12/13 08:20:53;;;;;;;18.83;14.38;;;9.40;99.90;;;;;;4995101;28;20057;-82
2021/12/13 08:23:23;;;;;;;24.95;16.10;;;9.40;99.90;;;;;;5012101;28;20057;-82
2021/12/13 08:25:54;;;;;;;23.67;15.80;;;9.40;99.90;;;;;;5012580;28;20046;-82
2021/12/13 08:28:37;;;;;;;23.55;15.80;;;9.40;99.90;;;;;;5011510;28;20125;-82
2021/12/13 08:31:06;;;;;;;26.85;16.30;;;9.40;99.90;;;;;;5013353;28;20108;-82
2021/12/13 08:33:43;;;;;;;25.92;17.60;;;9.40;99.90;;;;;;5012643;28;20068;-82
2021/12/13 08:36:13;;;;;;;25.52;15.55;;;9.50;99.90;;;;;;5013529;28;20104;-82
2021/12/13 08:38:47;;;;;;;27.85;16.20;;;9.50;99.90;;;;;;5013228;28;20046;-82
2021/12/13 08:41:24;;;;;;;27.10;15.40;;;9.50;99.90;;;;;;5011533;28;20184;-82
2021/12/13 08:44:04;;;;;;;21.80;16.33;;;9.50;99.90;;;;;;5012347;28;20050;-82
2021/12/13 08:46:40;;;;;;;21.58;15.75;;;9.50;99.90;;;;;;4999128;28;20054;-82
2021/12/13 08:49:24;;;;;;;30.58;17.83;;;9.50;99.90;;;;;;4998920;28;20050;-82
2021/12/13 08:52:13;;;;;;;33.45;17.65;;;9.50;99.90;;;;;;5015796;28;20056;-82
2021/12/13 08:55:10;;;;;;;23.08;16.85;;;9.60;99.90;;;;;;5014787;28;20089;-82
2021/12/13 08:57:56;;;;;;;25.55;18.00;;;9.60;99.90;;;;;;5015878;28;20058;-82
2021/12/13 09:00:45;;;;;;;27.45;17.88;;;9.60;99.90;;;;;;5015472;28;20050;-82
2021/12/13 09:03:13;;;;;;;25.40;16.13;;;9.60;99.90;;;;;;5014931;28;20367;-82
2021/12/13 09:05:47;;;;;;;22.75;17.05;;;9.60;99.90;;;;;;5015315;28;20111;-82
2021/12/13 09:08:15;;;;;;;22.77;16.15;;;9.60;99.90;;;;;;5015512;28;20044;-82
2021/12/13 09:10:41;;;;;;;21.55;15.65;;;9.60;99.90;;;;;;5014934;28;20050;-82
2021/12/13 09:13:07;;;;;;;21.17;15.38;;;9.60;99.90;;;;;;5015229;28;20052;-82
2021/12/13 09:15:35;;;;;;;20.30;15.10;;;9.60;99.90;;;;;;5014403;28;20060;-82
2021/12/13 09:18:02;;;;;;;23.65;15.48;;;9.60;99.90;;;;;;5015136;28;20081;-82
2021/12/13 09:20:39;;;;;;;23.05;16.20;;;9.60;99.90;;;;;;5016534;28;20497;-82
2021/12/13 09:23:22;;;;;;;23.58;14.57;;;9.60;99.90;;;;;;5014200;28;20053;-82
2021/12/13 09:25:59;;;;;;;19.77;15.05;;;9.70;99.90;;;;;;5015058;28;20052;-82
2021/12/13 09:28:41;;;;;;;27.67;14.10;;;9.70;99.90;;;;;;5016362;28;20074;-82
2021/12/13 09:31:23;;;;;;;21.17;14.65;;;9.70;99.90;;;;;;5014068;28;20054;-82
2021/12/13 09:34:08;;;;;;;20.05;15.15;;;9.70;99.90;;;;;;5015102;28;20115;-82
2021/12/13 09:36:38;;;;;;;14.50;12.98;;;9.70;99.90;;;;;;5014076;28;20053;-82
2021/12/13 09:39:08;;;;;;;20.23;14.38;;;9.70;99.90;;;;;;5014921;28;20184;-82
2021/12/13 09:41:41;;;;;;;18.38;13.82;;;9.70;99.90;;;;;;5016169;28;20396;-82
2021/12/13 09:44:10;;;;;;;17.15;13.55;;;9.70;99.90;;;;;;5015226;28;20045;-82
2021/12/13 09:46:57;;;;;;;25.70;14.73;;;9.70;99.90;;;;;;5014652;28;20058;-82
2021/12/13 09:49:28;;;;;;;20.48;13.50;;;9.70;99.90;;;;;;5014843;28;20053;-82
2021/12/13 09:52:29;;;;;;;21.50;14.30;;;9.70;99.90;;;;;;5013759;28;20052;-82
2021/12/13 09:54:58;;;;;;;16.88;13.05;;;9.70;99.90;;;;;;4997453;28;20414;-82
2021/12/13 09:57:31;;;;;;;21.80;14.85;;;9.70;99.90;;;;;;5013858;28;20049;-82
2021/12/13 09:59:58;;;;;;;16.33;12.77;;;9.70;99.90;;;;;;5014391;28;20128;-82
2021/12/13 10:02:39;;;;;;;23.35;13.45;;;9.70;99.90;;;;;;5014421;28;20056;-82
2021/12/13 10:05:11;;;;;;;18.98;13.80;;;9.70;99.90;;;;;;4997163;28;20375;-82
2021/12/13 10:07:41;;;;;;;21.88;13.75;;;9.70;99.90;;;;;;5015673;28;20053;-82
2021/12/13 10:10:18;;;;;;;23.65;13.98;;;9.70;99.90;;;;;;5014166;28;20151;-82
2021/12/13 10:12:52;;;;;;;21.65;13.10;;;9.70;99.90;;;;;;5013395;28;20050;-82
2021/12/13 10:15:47;;;;;;;20.45;13.63;;;9.70;99.90;;;;;;5014296;28;20061;-82
2021/12/13 10:18:17;;;;;;;15.55;12.68;;;9.70;99.90;;;;;;5014278;28;20054;-83
2021/12/13 10:20:56;;;;;;;21.13;12.35;;;9.70;99.90;;;;;;5013471;28;20129;-82
2021/12/13 10:23:28;;;;;;;18.17;13.32;;;9.70;99.90;;;;;;4997826;28;20057;-83
2021/12/13 10:25:57;;;;;;;19.20;13.75;;;9.70;99.90;;;;;;4996834;28;20093;-82
2021/12/13 10:28:31;;;;;;;15.75;12.52;;;9.80;99.90;;;;;;5013824;28;20519;-82
2021/12/13 10:31:01;;;;;;;25.08;13.73;;;9.80;99.90;;;;;;5013903;28;20057;-83
2021/12/13 10:33:28;;;;;;;18.67;12.57;;;9.90;99.90;;;;;;5012933;28;20502;-83
2021/12/13 10:35:55;;;;;;;20.10;12.88;;;9.90;99.90;;;;;;4997424;28;20057;-82
2021/12/13 10:38:45;;;;;;;17.70;13.18;;;10.00;99.90;;;;;;4997372;28;20045;-83
2021/12/13 10:41:22;;;;;;;19.23;12.90;;;9.90;99.90;;;;;;5014259;28;20042;-83
2021/12/13 10:43:53;;;;;;;17.00;13.18;;;10.00;99.90;;;;;;5013748;28;20045;-83
2021/12/13 10:46:26;;;;;;;20.10;13.43;;;10.00;99.90;;;;;;5013385;28;20497;-83
2021/12/13 10:48:59;;;;;;;14.60;12.80;;;10.00;99.90;;;;;;5012720;28;20061;-82
2021/12/13 10:51:36;;;;;;;24.67;13.15;;;10.00;99.90;;;;;;5013435;28;20560;-83
2021/12/13 10:54:08;;;;;;;20.08;13.23;;;10.00;99.90;;;;;;5012748;28;20042;-83
2021/12/13 10:56:41;;;;;;;18.65;12.52;;;10.00;99.90;;;;;;5013267;28;20061;-82
2021/12/13 10:59:11;;;;;;;18.23;13.10;;;9.90;99.90;;;;;;4996816;28;20064;-82
2021/12/13 11:01:42;;;;;;;19.40;13.90;;;9.90;99.90;;;;;;5012554;28;20082;-83
2021/12/13 11:04:14;;;;;;;18.38;12.80;;;10.00;99.90;;;;;;5013303;28;20050;-82
2021/12/13 11:06:42;;;;;;;17.90;11.90;;;10.00;99.90;;;;;;5013197;28;20077;-83
2021/12/13 11:09:11;;;;;;;20.33;14.23;;;10.00;99.90;;;;;;4995960;28;20061;-82
2021/12/13 11:11:51;;;;;;;35.03;14.68;;;10.00;99.90;;;;;;5013025;28;20506;-83
2021/12/13 11:14:20;;;;;;;20.27;14.00;;;10.00;99.90;;;;;;5013083;28;20400;-82
2021/12/13 11:16:52;;;;;;;19.58;14.38;;;10.00;99.90;;;;;;5012459;28;20054;-83
2021/12/13 11:19:22;;;;;;;21.40;14.70;;;10.10;99.90;;;;;;5013136;28;20445;-83
2021/12/13 11:21:50;;;;;;;19.05;14.25;;;10.10;99.90;;;;;;5014189;28;20104;-83
2021/12/13 11:24:19;;;;;;;20.30;12.85;;;10.10;99.90;;;;;;5012128;28;20088;-82
2021/12/13 11:26:48;;;;;;;22.77;13.65;;;10.10;99.90;;;;;;4996577;28;20042;-83
2021/12/13 11:29:15;;;;;;;18.45;13.10;;;10.10;99.90;;;;;;5013325;28;20088;-83
2021/12/13 11:31:53;;;;;;;20.52;13.45;;;10.10;99.90;;;;;;5012880;28;20108;-83
2021/12/13 11:34:31;;;;;;;20.98;14.18;;;10.20;99.90;;;;;;5012851;28;20056;-83
2021/12/13 11:37:13;;;;;;;16.15;12.85;;;10.20;99.90;;;;;;5011889;28;20109;-84
2021/12/13 11:39:48;;;;;;;19.48;14.05;;;10.20;99.90;;;;;;5012769;28;20049;-83
2021/12/13 11:42:29;;;;;;;;;;;10.20;99.90;;;;;;5013072;28;20057;-83
2021/12/13 11:45:13;;;;;;;23.08;14.00;;;10.20;99.90;;;;;;5013204;28;19925;-83
2021/12/13 11:48:35;;;;;;;20.55;13.23;;;10.30;99.90;;;;;;5013573;28;20124;-82
2021/12/13 11:51:37;;;;;;;17.90;13.40;;;10.30;99.90;;;;;;4936605;29;20110;-84
2021/12/13 11:54:11;;;;;;;20.52;12.73;;;10.30;99.90;;;;;;4937674;29;20436;-83
2021/12/13 11:57:30;;;;;;;19.85;12.55;;;10.40;99.90;;;;;;4988029;28;20053;-82
2021/12/13 12:00:25;;;;;;;23.38;14.15;;;10.40;99.90;;;;;;5012395;28;20068;-83
2021/12/13 12:03:28;;;;;;;22.50;13.88;;;10.40;99.90;;;;;;5013589;28;20132;-83
2021/12/13 12:06:25;;;;;;;22.33;13.80;;;10.30;99.90;;;;;;5011452;28;20489;-83
2021/12/13 12:09:13;;;;;;;21.60;14.48;;;10.30;99.90;;;;;;4996115;28;20089;-81
2021/12/13 12:11:49;;;;;;;23.73;13.38;;;10.30;99.90;;;;;;5011548;28;20056;-84
2021/12/13 12:14:22;;;;;;;22.05;13.75;;;10.30;99.90;;;;;;5012477;28;20054;-83
2021/12/13 12:16:50;;;;;;;20.05;12.80;;;10.20;99.90;;;;;;5013923;28;20045;-84
2021/12/13 12:19:20;;;;;;;18.95;13.32;;;10.30;99.90;;;;;;5012469;28;20050;-84
2021/12/13 12:21:52;;;;;;;19.25;13.35;;;10.30;99.90;;;;;;5016589;28;20052;-82
2021/12/13 12:24:22;;;;;;;22.23;13.23;;;10.30;99.90;;;;;;5017528;28;20049;-82
2021/12/13 12:27:12;;;;;;;19.25;13.23;;;10.30;99.90;;;;;;5015332;28;20180;-83
2021/12/13 12:29:42;;;;;;;25.88;14.30;;;10.30;99.90;;;;;;5016465;28;20050;-83
2021/12/13 12:32:18;;;;;;;22.50;14.27;;;10.30;99.90;;;;;;5016102;28;20061;-84
2021/12/13 12:35:02;;;;;;;19.85;13.07;;;10.30;99.90;;;;;;5016066;28;20489;-84
2021/12/13 12:37:27;;;;;;;18.67;12.90;;;10.30;99.90;;;;;;4999907;28;20440;-83
2021/12/13 12:40:08;;;;;;;17.38;12.43;;;10.30;99.90;;;;;;4998842;28;20049;-83
2021/12/13 12:42:44;;;;;;;25.90;12.65;;;10.30;99.90;;;;;;5015926;28;20490;-83
2021/12/13 12:45:18;;;;;;;18.73;11.55;;;10.30;99.90;;;;;;4999599;28;20129;-84
2021/12/13 12:47:47;;;;;;;20.73;12.75;;;10.40;99.90;;;;;;5016042;28;20127;-84
2021/12/13 12:50:18;;;;;;;16.60;11.07;;;10.40;99.90;;;;;;5015858;28;20062;-83
2021/12/13 12:52:49;;;;;;;18.23;11.75;;;10.40;99.90;;;;;;5016939;28;20053;-84
2021/12/13 12:55:19;;;;;;;20.73;11.18;;;10.40;99.90;;;;;;5014922;28;20058;-84
2021/12/13 12:57:45;;;;;;;17.40;11.45;;;10.40;99.90;;;;;;5015912;28;20386;-84
2021/12/13 13:00:12;;;;;;;16.83;11.90;;;10.40;99.90;;;;;;5015574;28;20518;-84
2021/12/13 13:02:37;;;;;;;21.60;12.65;;;10.40;99.90;;;;;;5014994;28;20056;-84
2021/12/13 13:05:07;;;;;;;18.63;11.10;;;10.40;99.90;;;;;;5015484;28;20429;-84
2021/12/13 13:07:37;;;;;;;18.95;12.10;;;10.40;99.90;;;;;;4998322;28;20064;-83
2021/12/13 13:10:19;;;;;;;20.27;11.32;;;10.30;99.90;;;;;;5015472;28;20053;-84
2021/12/13 13:12:45;;;;;;;21.63;11.50;;;10.30;99.90;;;;;;5015275;28;20576;-83
2021/12/13 13:15:30;;;;;;;23.20;12.07;;;10.30;99.90;;;;;;5014421;28;20125;-84
2021/12/13 13:18:04;;;;;;;16.63;11.23;;;10.20;99.90;;;;;;5015498;28;20104;-84
2021/12/13 13:20:32;;;;;;;25.20;12.27;;;10.20;99.90;;;;;;5015308;28;20054;-84
2021/12/13 13:23:00;;;;;;;21.70;11.82;;;10.20;99.90;;;;;;5014193;28;20050;-84
2021/12/13 13:25:37;;;;;;;20.20;11.25;;;10.20;99.90;;;;;;5015314;28;20405;-84
2021/12/13 13:28:13;;;;;;;16.92;10.85;;;10.20;99.90;;;;;;5015359;28;20069;-84
2021/12/13 13:30:56;;;;;;;18.45;11.20;;;10.30;99.90;;;;;;5015215;28;20049;-84